sensor_id;sensor_type;location;lat;lon;timestamp;temperature;humidity
68109;SHT30;54893;49.864;19.084;2023-06-10T00:03:22;15.47;97.72
68109;SHT30;54893;49.864;19.084;2023-06-10T00:08:24;15.50;97.11
68109;SHT30;54893;49.864;19.084;2023-06-10T00:13:24;15.47;97.21
68109;SHT30;54893;49.864;19.084;2023-06-10T00:18:25;15.44;97.81
68109;SHT30;54893;49.864;19.084;2023-06-10T00:23:27;15.44;98.45
68109;SHT30;54893;49.864;19.084;2023-06-10T00:28:31;15.44;98.53
68109;SHT30;54893;49.864;19.084;2023-06-10T00:33:31;15.51;98.91
68109;SHT30;54893;49.864;19.084;2023-06-10T00:38:31;15.65;99.49
68109;SHT30;54893;49.864;19.084;2023-06-10T00:43:32;15.71;99.30
68109;SHT30;54893;49.864;19.084;2023-06-10T00:48:33;15.75;99.30
68109;SHT30;54893;49.864;19.084;2023-06-10T00:53:33;15.83;99.23
68109;SHT30;54893;49.864;19.084;2023-06-10T00:58:34;15.74;98.68
68109;SHT30;54893;49.864;19.084;2023-06-10T01:03:35;15.77;93.81
68109;SHT30;54893;49.864;19.084;2023-06-10T01:08:52;15.78;94.46
68109;SHT30;54893;49.864;19.084;2023-06-10T01:13:55;15.84;95.60
68109;SHT30;54893;49.864;19.084;2023-06-10T01:18:58;15.93;98.25
68109;SHT30;54893;49.864;19.084;2023-06-10T01:23:58;15.85;94.52
68109;SHT30;54893;49.864;19.084;2023-06-10T01:29:15;15.93;96.43
68109;SHT30;54893;49.864;19.084;2023-06-10T01:34:18;15.88;94.76
68109;SHT30;54893;49.864;19.084;2023-06-10T01:39:22;15.85;94.13
68109;SHT30;54893;49.864;19.084;2023-06-10T01:44:24;15.90;94.62
68109;SHT30;54893;49.864;19.084;2023-06-10T01:49:24;15.84;98.35
68109;SHT30;54893;49.864;19.084;2023-06-10T01:54:26;15.77;97.34
68109;SHT30;54893;49.864;19.084;2023-06-10T01:59:27;15.83;98.04
68109;SHT30;54893;49.864;19.084;2023-06-10T02:04:27;15.84;99.20
68109;SHT30;54893;49.864;19.084;2023-06-10T02:09:27;15.75;95.12
68109;SHT30;54893;49.864;19.084;2023-06-10T02:14:29;15.84;98.70
68109;SHT30;54893;49.864;19.084;2023-06-10T02:19:29;15.78;98.82
68109;SHT30;54893;49.864;19.084;2023-06-10T02:24:30;15.83;98.82
68109;SHT30;54893;49.864;19.084;2023-06-10T02:29:31;15.81;98.90
68109;SHT30;54893;49.864;19.084;2023-06-10T02:34:31;15.83;99.45
68109;SHT30;54893;49.864;19.084;2023-06-10T02:39:31;15.80;98.88
68109;SHT30;54893;49.864;19.084;2023-06-10T02:44:32;15.81;97.46
68109;SHT30;54893;49.864;19.084;2023-06-10T02:49:32;15.90;98.95
68109;SHT30;54893;49.864;19.084;2023-06-10T02:54:33;15.91;98.90
68109;SHT30;54893;49.864;19.084;2023-06-10T02:59:33;15.91;98.82
68109;SHT30;54893;49.864;19.084;2023-06-10T03:04:33;15.91;99.35
68109;SHT30;54893;49.864;19.084;2023-06-10T03:09:34;15.94;99.67
68109;SHT30;54893;49.864;19.084;2023-06-10T03:14:34;15.95;98.42
68109;SHT30;54893;49.864;19.084;2023-06-10T03:19:35;15.97;95.70
68109;SHT30;54893;49.864;19.084;2023-06-10T03:24:38;16.05;97.66
68109;SHT30;54893;49.864;19.084;2023-06-10T03:29:40;16.02;95.85
68109;SHT30;54893;49.864;19.084;2023-06-10T03:34:40;16.07;98.87
68109;SHT30;54893;49.864;19.084;2023-06-10T03:39:41;16.01;96.01
68109;SHT30;54893;49.864;19.084;2023-06-10T03:44:41;16.05;97.26
68109;SHT30;54893;49.864;19.084;2023-06-10T03:49:41;16.14;97.59
68109;SHT30;54893;49.864;19.084;2023-06-10T03:54:42;16.12;99.05
68109;SHT30;54893;49.864;19.084;2023-06-10T03:59:42;16.11;96.68
68109;SHT30;54893;49.864;19.084;2023-06-10T04:04:43;16.19;97.20
68109;SHT30;54893;49.864;19.084;2023-06-10T04:09:44;16.26;96.22
68109;SHT30;54893;49.864;19.084;2023-06-10T04:14:44;16.33;96.55
68109;SHT30;54893;49.864;19.084;2023-06-10T04:19:44;16.35;98.14
68109;SHT30;54893;49.864;19.084;2023-06-10T04:24:45;16.28;98.63
68109;SHT30;54893;49.864;19.084;2023-06-10T04:29:46;16.28;98.76
68109;SHT30;54893;49.864;19.084;2023-06-10T04:34:46;16.26;99.01
68109;SHT30;54893;49.864;19.084;2023-06-10T04:39:46;16.36;97.84
68109;SHT30;54893;49.864;19.084;2023-06-10T04:44:47;16.45;97.92
68109;SHT30;54893;49.864;19.084;2023-06-10T04:49:47;16.52;97.14
68109;SHT30;54893;49.864;19.084;2023-06-10T04:54:48;16.68;97.57
68109;SHT30;54893;49.864;19.084;2023-06-10T04:59:48;16.79;97.06
68109;SHT30;54893;49.864;19.084;2023-06-10T05:04:49;16.93;96.18
68109;SHT30;54893;49.864;19.084;2023-06-10T05:09:49;16.92;96.61
68109;SHT30;54893;49.864;19.084;2023-06-10T05:14:49;17.00;95.65
68109;SHT30;54893;49.864;19.084;2023-06-10T05:19:50;17.16;94.85
68109;SHT30;54893;49.864;19.084;2023-06-10T05:24:50;17.16;95.49
68109;SHT30;54893;49.864;19.084;2023-06-10T05:29:51;17.40;95.30
68109;SHT30;54893;49.864;19.084;2023-06-10T05:34:51;17.57;94.19
68109;SHT30;54893;49.864;19.084;2023-06-10T05:39:52;18.09;93.16
68109;SHT30;54893;49.864;19.084;2023-06-10T05:44:52;18.82;91.75
68109;SHT30;54893;49.864;19.084;2023-06-10T05:49:53;18.59;90.75
68109;SHT30;54893;49.864;19.084;2023-06-10T05:54:53;19.46;89.72
68109;SHT30;54893;49.864;19.084;2023-06-10T05:59:54;19.28;89.70
68109;SHT30;54893;49.864;19.084;2023-06-10T06:04:55;19.16;88.90
68109;SHT30;54893;49.864;19.084;2023-06-10T06:09:55;19.49;89.03
68109;SHT30;54893;49.864;19.084;2023-06-10T06:14:55;18.88;90.20
68109;SHT30;54893;49.864;19.084;2023-06-10T06:19:56;18.99;89.90
68109;SHT30;54893;49.864;19.084;2023-06-10T06:24:56;19.09;89.78
68109;SHT30;54893;49.864;19.084;2023-06-10T06:29:56;18.89;90.22
68109;SHT30;54893;49.864;19.084;2023-06-10T06:34:57;18.73;90.36
68109;SHT30;54893;49.864;19.084;2023-06-10T06:39:57;18.66;90.52
68109;SHT30;54893;49.864;19.084;2023-06-10T06:44:58;18.66;90.50
68109;SHT30;54893;49.864;19.084;2023-06-10T06:49:58;19.02;90.11
68109;SHT30;54893;49.864;19.084;2023-06-10T06:54:58;18.73;90.42
68109;SHT30;54893;49.864;19.084;2023-06-10T06:59:59;18.62;90.40
68109;SHT30;54893;49.864;19.084;2023-06-10T07:04:59;18.73;90.09
68109;SHT30;54893;49.864;19.084;2023-06-10T07:10:00;18.91;89.52
68109;SHT30;54893;49.864;19.084;2023-06-10T07:15:01;19.12;89.27
68109;SHT30;54893;49.864;19.084;2023-06-10T07:20:01;19.03;89.42
68109;SHT30;54893;49.864;19.084;2023-06-10T07:25:02;19.22;89.28
68109;SHT30;54893;49.864;19.084;2023-06-10T07:30:04;19.19;88.96
68109;SHT30;54893;49.864;19.084;2023-06-10T07:35:08;19.31;88.53
68109;SHT30;54893;49.864;19.084;2023-06-10T07:40:09;19.28;88.42
68109;SHT30;54893;49.864;19.084;2023-06-10T07:45:09;19.57;87.78
68109;SHT30;54893;49.864;19.084;2023-06-10T07:50:10;19.80;87.04
68109;SHT30;54893;49.864;19.084;2023-06-10T07:55:10;20.05;85.36
68109;SHT30;54893;49.864;19.084;2023-06-10T08:00:11;19.98;86.66
68109;SHT30;54893;49.864;19.084;2023-06-10T08:05:12;19.46;87.58
68109;SHT30;54893;49.864;19.084;2023-06-10T08:10:12;19.30;87.63
68109;SHT30;54893;49.864;19.084;2023-06-10T08:15:13;19.49;87.31
68109;SHT30;54893;49.864;19.084;2023-06-10T08:20:13;20.34;84.75
68109;SHT30;54893;49.864;19.084;2023-06-10T08:25:13;20.93;83.54
68109;SHT30;54893;49.864;19.084;2023-06-10T08:30:14;21.98;81.47
68109;SHT30;54893;49.864;19.084;2023-06-10T08:35:14;22.52;80.50
68109;SHT30;54893;49.864;19.084;2023-06-10T08:40:15;22.41;79.46
68109;SHT30;54893;49.864;19.084;2023-06-10T08:45:18;21.70;80.89
68109;SHT30;54893;49.864;19.084;2023-06-10T08:50:19;21.16;80.14
68109;SHT30;54893;49.864;19.084;2023-06-10T08:55:30;21.32;79.48
68109;SHT30;54893;49.864;19.084;2023-06-10T09:00:32;21.67;79.59
68109;SHT30;54893;49.864;19.084;2023-06-10T09:05:33;22.32;77.25
68109;SHT30;54893;49.864;19.084;2023-06-10T09:10:34;22.52;76.91
68109;SHT30;54893;49.864;19.084;2023-06-10T09:15:34;22.55;75.93
68109;SHT30;54893;49.864;19.084;2023-06-10T09:20:35;23.76;74.48
68109;SHT30;54893;49.864;19.084;2023-06-10T09:25:37;23.69;73.53
68109;SHT30;54893;49.864;19.084;2023-06-10T09:30:38;23.67;73.32
68109;SHT30;54893;49.864;19.084;2023-06-10T09:35:45;23.70;73.48
68109;SHT30;54893;49.864;19.084;2023-06-10T09:40:51;23.30;74.08
68109;SHT30;54893;49.864;19.084;2023-06-10T09:45:51;23.32;75.21
68109;SHT30;54893;49.864;19.084;2023-06-10T09:50:55;23.34;73.55
68109;SHT30;54893;49.864;19.084;2023-06-10T09:55:57;23.57;73.10
68109;SHT30;54893;49.864;19.084;2023-06-10T10:00:57;24.52;71.62
68109;SHT30;54893;49.864;19.084;2023-06-10T10:05:59;23.70;72.16
68109;SHT30;54893;49.864;19.084;2023-06-10T10:11:01;23.96;72.19
68109;SHT30;54893;49.864;19.084;2023-06-10T10:16:15;24.75;70.90
68109;SHT30;54893;49.864;19.084;2023-06-10T10:21:21;26.16;68.98
68109;SHT30;54893;49.864;19.084;2023-06-10T10:26:23;25.76;68.46
68109;SHT30;54893;49.864;19.084;2023-06-10T10:31:27;25.04;69.45
68109;SHT30;54893;49.864;19.084;2023-06-10T10:36:29;24.95;69.45
68109;SHT30;54893;49.864;19.084;2023-06-10T10:41:30;24.45;70.35
68109;SHT30;54893;49.864;19.084;2023-06-10T10:46:42;24.91;68.49
68109;SHT30;54893;49.864;19.084;2023-06-10T10:52:00;25.05;68.94
68109;SHT30;54893;49.864;19.084;2023-06-10T11:02:18;25.14;68.88
68109;SHT30;54893;49.864;19.084;2023-06-10T11:07:24;24.40;70.18
68109;SHT30;54893;49.864;19.084;2023-06-10T11:12:25;24.85;69.54
68109;SHT30;54893;49.864;19.084;2023-06-10T11:17:26;24.60;69.61
68109;SHT30;54893;49.864;19.084;2023-06-10T11:22:26;24.81;69.28
68109;SHT30;54893;49.864;19.084;2023-06-10T11:27:37;23.87;70.57
68109;SHT30;54893;49.864;19.084;2023-06-10T11:32:41;23.19;72.04
68109;SHT30;54893;49.864;19.084;2023-06-10T11:37:43;22.38;74.34
68109;SHT30;54893;49.864;19.084;2023-06-10T11:42:43;22.54;74.24
68109;SHT30;54893;49.864;19.084;2023-06-10T11:47:59;23.12;74.26
68109;SHT30;54893;49.864;19.084;2023-06-10T11:53:00;23.76;71.80
68109;SHT30;54893;49.864;19.084;2023-06-10T11:58:01;23.60;72.23
68109;SHT30;54893;49.864;19.084;2023-06-10T12:03:01;22.35;76.62
68109;SHT30;54893;49.864;19.084;2023-06-10T12:08:09;20.65;84.25
68109;SHT30;54893;49.864;19.084;2023-06-10T12:13:11;20.00;84.57
68109;SHT30;54893;49.864;19.084;2023-06-10T12:18:18;19.90;86.78
68109;SHT30;54893;49.864;19.084;2023-06-10T12:23:19;19.84;84.92
68109;SHT30;54893;49.864;19.084;2023-06-10T12:28:23;19.41;86.65
68109;SHT30;54893;49.864;19.084;2023-06-10T12:33:24;19.56;86.99
68109;SHT30;54893;49.864;19.084;2023-06-10T12:38:25;19.88;86.78
68109;SHT30;54893;49.864;19.084;2023-06-10T12:43:31;19.78;87.44
68109;SHT30;54893;49.864;19.084;2023-06-10T12:48:31;20.36;83.62
68109;SHT30;54893;49.864;19.084;2023-06-10T12:53:31;20.52;82.16
68109;SHT30;54893;49.864;19.084;2023-06-10T12:58:32;20.64;81.77
68109;SHT30;54893;49.864;19.084;2023-06-10T13:03:33;21.03;80.74
68109;SHT30;54893;49.864;19.084;2023-06-10T13:08:33;21.04;81.37
68109;SHT30;54893;49.864;19.084;2023-06-10T13:13:36;21.37;80.81
68109;SHT30;54893;49.864;19.084;2023-06-10T13:18:37;20.35;82.18
68109;SHT30;54893;49.864;19.084;2023-06-10T13:23:38;20.44;81.57
68109;SHT30;54893;49.864;19.084;2023-06-10T13:28:38;20.69;81.09
68109;SHT30;54893;49.864;19.084;2023-06-10T13:33:39;20.95;79.46
68109;SHT30;54893;49.864;19.084;2023-06-10T13:38:40;21.22;78.70
68109;SHT30;54893;49.864;19.084;2023-06-10T13:43:41;21.50;78.09
68109;SHT30;54893;49.864;19.084;2023-06-10T13:48:41;21.60;77.86
68109;SHT30;54893;49.864;19.084;2023-06-10T13:53:42;21.80;77.15
68109;SHT30;54893;49.864;19.084;2023-06-10T13:58:42;22.07;76.99
68109;SHT30;54893;49.864;19.084;2023-06-10T14:03:43;22.47;76.61
68109;SHT30;54893;49.864;19.084;2023-06-10T14:08:44;22.47;75.30
68109;SHT30;54893;49.864;19.084;2023-06-10T14:13:45;22.89;75.23
68109;SHT30;54893;49.864;19.084;2023-06-10T14:18:45;23.26;73.23
68109;SHT30;54893;49.864;19.084;2023-06-10T14:23:46;23.46;73.72
68109;SHT30;54893;49.864;19.084;2023-06-10T14:28:46;23.64;73.12
68109;SHT30;54893;49.864;19.084;2023-06-10T14:33:46;23.60;72.61
68109;SHT30;54893;49.864;19.084;2023-06-10T14:38:47;24.01;72.54
68109;SHT30;54893;49.864;19.084;2023-06-10T14:43:47;24.68;71.02
68109;SHT30;54893;49.864;19.084;2023-06-10T14:48:48;25.47;69.20
68109;SHT30;54893;49.864;19.084;2023-06-10T14:53:49;24.47;70.12
68109;SHT30;54893;49.864;19.084;2023-06-10T14:58:50;24.18;69.78
68109;SHT30;54893;49.864;19.084;2023-06-10T15:03:51;24.52;69.14
68109;SHT30;54893;49.864;19.084;2023-06-10T15:08:51;25.28;67.04
68109;SHT30;54893;49.864;19.084;2023-06-10T15:13:52;25.76;65.82
68109;SHT30;54893;49.864;19.084;2023-06-10T15:18:52;25.93;65.48
68109;SHT30;54893;49.864;19.084;2023-06-10T15:23:52;24.64;67.55
68109;SHT30;54893;49.864;19.084;2023-06-10T15:28:53;23.83;68.13
68109;SHT30;54893;49.864;19.084;2023-06-10T15:33:53;26.64;62.77
68109;SHT30;54893;49.864;19.084;2023-06-10T15:38:54;28.37;59.86
68109;SHT30;54893;49.864;19.084;2023-06-10T15:43:57;27.67;61.34
68109;SHT30;54893;49.864;19.084;2023-06-10T15:48:59;28.46;59.12
68109;SHT30;54893;49.864;19.084;2023-06-10T15:54:00;30.73;54.52
68109;SHT30;54893;49.864;19.084;2023-06-10T15:59:00;32.49;51.62
68109;SHT30;54893;49.864;19.084;2023-06-10T16:04:01;32.70;50.00
68109;SHT30;54893;49.864;19.084;2023-06-10T16:09:01;32.76;49.54
68109;SHT30;54893;49.864;19.084;2023-06-10T16:14:02;30.52;53.74
68109;SHT30;54893;49.864;19.084;2023-06-10T16:19:03;30.16;54.14
68109;SHT30;54893;49.864;19.084;2023-06-10T16:24:03;31.61;50.03
68109;SHT30;54893;49.864;19.084;2023-06-10T16:29:04;32.66;48.80
68109;SHT30;54893;49.864;19.084;2023-06-10T16:34:04;33.41;47.57
68109;SHT30;54893;49.864;19.084;2023-06-10T16:39:04;29.04;56.07
68109;SHT30;54893;49.864;19.084;2023-06-10T16:44:05;25.15;64.35
68109;SHT30;54893;49.864;19.084;2023-06-10T16:49:05;23.64;65.75
68109;SHT30;54893;49.864;19.084;2023-06-10T16:54:06;22.51;66.94
68109;SHT30;54893;49.864;19.084;2023-06-10T16:59:06;21.76;68.09
68109;SHT30;54893;49.864;19.084;2023-06-10T17:04:06;21.32;68.52
68109;SHT30;54893;49.864;19.084;2023-06-10T17:09:07;20.82;69.92
68109;SHT30;54893;49.864;19.084;2023-06-10T17:14:07;20.67;69.50
68109;SHT30;54893;49.864;19.084;2023-06-10T17:19:07;20.38;70.17
68109;SHT30;54893;49.864;19.084;2023-06-10T17:24:08;19.94;72.16
68109;SHT30;54893;49.864;19.084;2023-06-10T17:29:08;19.88;70.52
68109;SHT30;54893;49.864;19.084;2023-06-10T17:34:09;19.80;70.68
68109;SHT30;54893;49.864;19.084;2023-06-10T17:39:11;19.77;70.18
68109;SHT30;54893;49.864;19.084;2023-06-10T17:44:11;19.67;71.74
68109;SHT30;54893;49.864;19.084;2023-06-10T17:49:12;19.56;71.30
68109;SHT30;54893;49.864;19.084;2023-06-10T17:54:12;19.57;71.79
68109;SHT30;54893;49.864;19.084;2023-06-10T17:59:13;19.40;72.40
68109;SHT30;54893;49.864;19.084;2023-06-10T18:04:13;19.24;72.90
68109;SHT30;54893;49.864;19.084;2023-06-10T18:09:13;19.19;73.31
68109;SHT30;54893;49.864;19.084;2023-06-10T18:14:14;19.02;74.67
68109;SHT30;54893;49.864;19.084;2023-06-10T18:19:15;18.86;73.53
68109;SHT30;54893;49.864;19.084;2023-06-10T18:24:15;18.72;74.31
68109;SHT30;54893;49.864;19.084;2023-06-10T18:29:16;18.59;74.00
68109;SHT30;54893;49.864;19.084;2023-06-10T18:34:16;18.51;73.95
68109;SHT30;54893;49.864;19.084;2023-06-10T18:39:17;18.34;74.76
68109;SHT30;54893;49.864;19.084;2023-06-10T18:44:17;18.14;75.04
68109;SHT30;54893;49.864;19.084;2023-06-10T18:49:17;17.91;75.76
68109;SHT30;54893;49.864;19.084;2023-06-10T18:54:18;17.77;75.79
68109;SHT30;54893;49.864;19.084;2023-06-10T18:59:19;17.61;76.51
68109;SHT30;54893;49.864;19.084;2023-06-10T19:04:20;17.47;76.95
68109;SHT30;54893;49.864;19.084;2023-06-10T19:09:20;17.29;79.47
68109;SHT30;54893;49.864;19.084;2023-06-10T19:14:21;17.17;80.10
68109;SHT30;54893;49.864;19.084;2023-06-10T19:19:21;17.10;79.42
68109;SHT30;54893;49.864;19.084;2023-06-10T19:24:21;17.07;79.39
68109;SHT30;54893;49.864;19.084;2023-06-10T19:29:22;16.97;79.49
68109;SHT30;54893;49.864;19.084;2023-06-10T19:34:22;16.85;79.97
68109;SHT30;54893;49.864;19.084;2023-06-10T19:39:22;16.76;80.15
68109;SHT30;54893;49.864;19.084;2023-06-10T19:44:23;16.66;80.44
68109;SHT30;54893;49.864;19.084;2023-06-10T19:49:23;16.49;80.97
68109;SHT30;54893;49.864;19.084;2023-06-10T19:54:24;16.44;81.55
68109;SHT30;54893;49.864;19.084;2023-06-10T19:59:24;16.25;83.06
68109;SHT30;54893;49.864;19.084;2023-06-10T20:04:25;16.19;82.65
68109;SHT30;54893;49.864;19.084;2023-06-10T20:09:25;16.25;83.64
68109;SHT30;54893;49.864;19.084;2023-06-10T20:14:26;16.36;82.47
68109;SHT30;54893;49.864;19.084;2023-06-10T20:19:26;16.45;84.69
68109;SHT30;54893;49.864;19.084;2023-06-10T20:24:26;16.45;85.48
68109;SHT30;54893;49.864;19.084;2023-06-10T20:29:27;16.49;85.33
68109;SHT30;54893;49.864;19.084;2023-06-10T20:34:27;16.47;84.71
68109;SHT30;54893;49.864;19.084;2023-06-10T20:39:27;16.48;85.08
68109;SHT30;54893;49.864;19.084;2023-06-10T20:44:28;16.47;84.33
68109;SHT30;54893;49.864;19.084;2023-06-10T20:49:28;16.41;86.00
68109;SHT30;54893;49.864;19.084;2023-06-10T20:54:29;16.41;84.95
68109;SHT30;54893;49.864;19.084;2023-06-10T20:59:29;16.39;87.37
68109;SHT30;54893;49.864;19.084;2023-06-10T21:04:30;16.38;87.44
68109;SHT30;54893;49.864;19.084;2023-06-10T21:09:30;16.24;87.55
68109;SHT30;54893;49.864;19.084;2023-06-10T21:14:30;16.15;85.47
68109;SHT30;54893;49.864;19.084;2023-06-10T21:19:31;15.97;85.65
68109;SHT30;54893;49.864;19.084;2023-06-10T21:24:31;15.84;86.58
68109;SHT30;54893;49.864;19.084;2023-06-10T21:29:31;15.80;84.67
68109;SHT30;54893;49.864;19.084;2023-06-10T21:34:32;15.77;88.33
68109;SHT30;54893;49.864;19.084;2023-06-10T21:39:32;15.75;89.87
68109;SHT30;54893;49.864;19.084;2023-06-10T21:44:33;15.46;86.53
68109;SHT30;54893;49.864;19.084;2023-06-10T21:49:33;15.26;88.01
68109;SHT30;54893;49.864;19.084;2023-06-10T21:54:33;15.26;87.62
68109;SHT30;54893;49.864;19.084;2023-06-10T21:59:34;15.34;88.44
68109;SHT30;54893;49.864;19.084;2023-06-10T22:04:36;15.44;88.75
68109;SHT30;54893;49.864;19.084;2023-06-10T22:09:39;15.55;90.26
68109;SHT30;54893;49.864;19.084;2023-06-10T22:14:44;15.58;88.40
68109;SHT30;54893;49.864;19.084;2023-06-10T22:19:45;15.58;87.23
68109;SHT30;54893;49.864;19.084;2023-06-10T22:24:54;15.63;87.39
68109;SHT30;54893;49.864;19.084;2023-06-10T22:29:54;15.64;87.77
68109;SHT30;54893;49.864;19.084;2023-06-10T22:34:55;15.68;87.27
68109;SHT30;54893;49.864;19.084;2023-06-10T22:39:55;15.64;88.13
68109;SHT30;54893;49.864;19.084;2023-06-10T22:44:55;15.58;87.82
68109;SHT30;54893;49.864;19.084;2023-06-10T22:49:56;15.37;89.08
68109;SHT30;54893;49.864;19.084;2023-06-10T22:54:56;15.24;89.16
68109;SHT30;54893;49.864;19.084;2023-06-10T22:59:59;15.11;90.39
68109;SHT30;54893;49.864;19.084;2023-06-10T23:05:00;15.11;89.82
68109;SHT30;54893;49.864;19.084;2023-06-10T23:10:00;14.96;90.19
68109;SHT30;54893;49.864;19.084;2023-06-10T23:15:01;14.86;90.15
68109;SHT30;54893;49.864;19.084;2023-06-10T23:20:01;14.77;91.01
68109;SHT30;54893;49.864;19.084;2023-06-10T23:25:02;14.69;92.17
68109;SHT30;54893;49.864;19.084;2023-06-10T23:30:02;14.69;92.18
68109;SHT30;54893;49.864;19.084;2023-06-10T23:35:03;14.72;91.64
68109;SHT30;54893;49.864;19.084;2023-06-10T23:40:05;14.90;91.80
68109;SHT30;54893;49.864;19.084;2023-06-10T23:45:06;14.87;91.62
68109;SHT30;54893;49.864;19.084;2023-06-10T23:50:07;14.82;92.20
68109;SHT30;54893;49.864;19.084;2023-06-10T23:55:08;14.85;92.64
